Map

Track Data

SID SEASON NUMBER BASIN SUBBASIN NAME ISO_TIME NATURE LAT LON WMO_WIND WMO_PRES WMO_AGENCY TRACK_TYPE DIST2LAND LANDFALL IFLAG USA_AGENCY USA_ATCF_ID USA_LAT USA_LON USA_RECORD USA_STATUS USA_WIND USA_PRES USA_SSHS USA_R34_NE USA_R34_SE USA_R34_SW USA_R34_NW USA_R50_NE USA_R50_SE USA_R50_SW USA_R50_NW USA_R64_NE USA_R64_SE USA_R64_SW USA_R64_NW USA_POCI USA_ROCI USA_RMW USA_EYE TOKYO_LAT TOKYO_LON TOKYO_GRADE TOKYO_WIND TOKYO_PRES TOKYO_R50_DIR TOKYO_R50_LONG TOKYO_R50_SHORT TOKYO_R30_DIR TOKYO_R30_LONG TOKYO_R30_SHORT TOKYO_LAND CMA_LAT CMA_LON CMA_CAT CMA_WIND CMA_PRES HKO_LAT HKO_LON HKO_CAT HKO_WIND HKO_PRES NEWDELHI_LAT NEWDELHI_LON NEWDELHI_GRADE NEWDELHI_WIND NEWDELHI_PRES NEWDELHI_CI NEWDELHI_DP NEWDELHI_POCI REUNION_LAT REUNION_LON REUNION_TYPE REUNION_WIND REUNION_PRES REUNION_TNUM REUNION_CI REUNION_RMW REUNION_R34_NE REUNION_R34_SE REUNION_R34_SW REUNION_R34_NW REUNION_R50_NE REUNION_R50_SE REUNION_R50_SW REUNION_R50_NW REUNION_R64_NE REUNION_R64_SE REUNION_R64_SW REUNION_R64_NW BOM_LAT BOM_LON BOM_TYPE BOM_WIND BOM_PRES BOM_TNUM BOM_CI BOM_RMW BOM_R34_NE BOM_R34_SE BOM_R34_SW BOM_R34_NW BOM_R50_NE BOM_R50_SE BOM_R50_SW BOM_R50_NW BOM_R64_NE BOM_R64_SE BOM_R64_SW BOM_R64_NW BOM_ROCI BOM_POCI BOM_EYE BOM_POS_METHOD BOM_PRES_METHOD NADI_LAT NADI_LON NADI_CAT NADI_WIND NADI_PRES WELLINGTON_LAT WELLINGTON_LON WELLINGTON_WIND WELLINGTON_PRES DS824_LAT DS824_LON DS824_STAGE DS824_WIND DS824_PRES TD9636_LAT TD9636_LON TD9636_STAGE TD9636_WIND TD9636_PRES TD9635_LAT TD9635_LON TD9635_WIND TD9635_PRES TD9635_ROCI NEUMANN_LAT NEUMANN_LON NEUMANN_CLASS NEUMANN_WIND NEUMANN_PRES MLC_LAT MLC_LON MLC_CLASS MLC_WIND MLC_PRES USA_GUST BOM_GUST BOM_GUST_PER REUNION_GUST REUNION_GUST_PER USA_SEAHGT USA_SEARAD_NE USA_SEARAD_SE USA_SEARAD_SW USA_SEARAD_NW STORM_SPEED STORM_DIR
1936051S20041 1936 8 SI MM NOT_NAMED 1936-02-20 06:00:00 NR -20.1000 40.9000 reunion main 306 306 _____O________ -1 -20.1000 40.9000 99 9.90000 2 344
1936051S20041 1936 8 SI MM NOT_NAMED 1936-02-20 09:00:00 NR -20.0151 40.8861 main 312 312 _____P________ -1 -20.0151 40.8861 99 2 357
1936051S20041 1936 8 SI MM NOT_NAMED 1936-02-20 12:00:00 NR -19.9419 40.8783 main 318 318 _____P________ -1 -19.9419 40.8783 99 1 350
1936051S20041 1936 8 SI MM NOT_NAMED 1936-02-20 15:00:00 NR -19.8920 40.8827 main 318 318 _____P________ -1 -19.8920 40.8827 99 4 239
1936051S20041 1936 8 SI MM NOT_NAMED 1936-02-20 18:00:00 NR -20.1617 40.4842 main 339 339 _____P____O___ -1 -19.8771 40.9052 99 -21.3000 38.8000 7 8 230
1936051S20041 1936 8 SI MM NOT_NAMED 1936-02-20 21:00:00 NR -20.3859 40.2493 main 360 357 _____P____P___ -1 -19.9088 40.9520 99 -21.3399 38.8437 7 7 215
1936051S20041 1936 8 SI MM NOT_NAMED 1936-02-21 00:00:00 TS -20.7546 40.0383 main 366 343 _____P___OP___ -1 -19.9988 41.0292 99 -21.8000 39.4000 TC 25 -21.4139 38.9298 7 8 191
1936051S20041 1936 8 SI MM NOT_NAMED 1936-02-21 03:00:00 TS -21.1369 40.0850 main 343 299 _____P___PP___ -1 -20.1587 41.1431 99 -22.2553 39.9369 TC 25 -21.5560 39.1009 7 9 157
1936051S20041 1936 8 SI MM NOT_NAMED 1936-02-21 06:00:00 TS -21.5364 40.3909 reunion main 299 248 _____O___OO___ -1 -20.4000 41.3000 99 9.90000 -22.7000 40.5000 TC 25 -21.8000 39.4000 1 11 142
1936051S20041 1936 8 SI MM NOT_NAMED 1936-02-21 09:00:00 TS -22.0052 40.8198 main 248 195 _____P___PP___ -1 -20.7290 41.5047 99 -23.1224 41.1001 TC 25 -22.1641 39.8547 1 12 136
1936051S20041 1936 8 SI MM NOT_NAMED 1936-02-21 12:00:00 TS -22.4123 41.2937 main 195 154 _____P___OP___ -1 -21.1305 41.7540 99 -23.5000 41.7000 TC 25 -22.6064 40.4269 1 12 133
1936051S20041 1936 8 SI MM NOT_NAMED 1936-02-21 15:00:00 TS -22.8254 41.7874 main 154 121 _____P___PP___ -1 -21.5837 42.0432 99 -23.8222 42.2579 TC 25 -23.0703 41.0611 1 12 131
1936051S20041 1936 8 SI MM NOT_NAMED 1936-02-21 18:00:00 TS -23.2226 42.2890 main 121 92 _____P___OO___ -1 -22.0678 42.3671 99 -24.1000 42.8000 TC 25 -23.5000 41.7000 1 12 130
1936051S20041 1936 8 SI MM NOT_NAMED 1936-02-21 21:00:00 TS -23.5868 42.7711 main 82 46 _____P___PP___ -1 -22.5622 42.7203 99 -24.3647 43.3428 TC 25 -23.8334 42.2503 1 11 128
1936051S20041 1936 8 SI MM NOT_NAMED 1936-02-22 00:00:00 TS -23.9232 43.2638 main 37 10 _____P___OP___ -1 -23.0461 43.0975 99 -24.6000 43.9000 TC 25 -24.1237 42.7940 1 11 125
1936051S20041 1936 8 SI MM NOT_NAMED 1936-02-22 03:00:00 TS -24.2303 43.7753 main 0 0 _____P___PP___ -1 -23.4988 43.4928 99 -24.8148 44.4926 TC 25 -24.3771 43.3406 1 11 121
1936051S20041 1936 8 SI MM NOT_NAMED 1936-02-22 06:00:00 TS -24.5000 44.3000 reunion main 0 0 _____O___OO___ -1 -23.9000 43.9000 99 9.90000 -25.0000 45.1000 TC 25 -24.6000 43.9000 1 11 118
1936051S20041 1936 8 SI MM NOT_NAMED 1936-02-22 09:00:00 TS -24.7267 44.8088 main 0 0 _____P___PP___ -1 -24.1996 44.2246 99 -25.1648 45.7076 TC 25 -24.8157 44.4943 1 10 114
1936051S20041 1936 8 SI MM NOT_NAMED 1936-02-22 12:00:00 TS -24.9203 45.3193 main 0 0 _____P___OP___ -1 -24.4586 44.5574 99 -25.3000 46.3000 TC 25 -25.0022 45.1006 1 10 111
1936051S20041 1936 8 SI MM NOT_NAMED 1936-02-22 15:00:00 TS -25.0831 45.8243 main 0 0 _____P___PP___ -1 -24.6796 44.9085 99 -25.4072 46.8577 TC 25 -25.1626 45.7066 1 10 108
1936051S20041 1936 8 SI MM NOT_NAMED 1936-02-22 18:00:00 TS -25.2217 46.3294 main 10 10 _____P___OO___ -1 -24.8652 45.2881 99 -25.5000 47.4000 TC 25 -25.3000 46.3000 1 10 107
1936051S20041 1936 8 SI MM NOT_NAMED 1936-02-22 21:00:00 TS -25.3539 46.8339 main 22 22 _____P___PP___ -1 -25.0178 45.7066 99 -25.6072 47.9425 TC 25 -25.4366 46.8525 1 10 105
1936051S20041 1936 8 SI MM NOT_NAMED 1936-02-23 00:00:00 TS -25.4635 47.3558 main 60 60 _____P___OP___ -1 -25.1398 46.1745 99 -25.7000 48.5000 TC 25 -25.5508 47.3928 1 10 101
1936051S20041 1936 8 SI MM NOT_NAMED 1936-02-23 03:00:00 TS -25.5484 47.9079 main 97 97 _____P___PP___ -1 -25.2332 46.7021 99 -25.7722 49.0849 TC 25 -25.6397 47.9366 1 10 98
1936051S20041 1936 8 SI MM NOT_NAMED 1936-02-23 06:00:00 TS -25.6000 48.5000 reunion main 155 155 _____O___OO___ -1 -25.3000 47.3000 99 9.90000 -25.8000 49.7000 TC 25 -25.7000 48.5000 1 11 94
1936051S20041 1936 8 SI MM NOT_NAMED 1936-02-23 09:00:00 TS -25.6188 49.1769 main 221 221 _____P___PP___ -1 -25.3386 48.0417 99 -25.7726 50.3651 TC 25 -25.7452 49.1239 1 12 90
1936051S20041 1936 8 SI MM NOT_NAMED 1936-02-23 12:00:00 TS -25.6004 49.8752 main 289 289 _____P___OP___ -1 -25.3408 48.8606 99 -25.7000 51.0000 TC 25 -25.7604 49.7650 1 12 87
1936051S20041 1936 8 SI MM NOT_NAMED 1936-02-23 15:00:00 TS -25.5558 50.5515 main 354 350 _____P___PP___ -1 -25.3150 49.7335 99 -25.6071 51.5225 TC 25 -25.7452 50.3987 1 12 85
1936051S20041 1936 8 SI MM NOT_NAMED 1936-02-23 18:00:00 TS -25.4901 51.2123 main 408 408 _____P___OO___ -1 -25.2702 50.6369 99 -25.5000 52.0000 TC 25 -25.7000 51.0000 1 12 83
1936051S20041 1936 8 SI MM NOT_NAMED 1936-02-23 21:00:00 TS -25.4076 51.8445 main 461 461 _____P___PP___ -1 -25.2159 51.5478 99 -25.3921 52.4775 TC 30 -25.6146 51.5081 1 12 82
1936051S20041 1936 8 SI MM NOT_NAMED 1936-02-24 00:00:00 TS -25.3224 52.4764 main 525 500 _____P___OP___ -1 -25.1623 52.4435 99 -25.3000 53.0000 TC 35 -25.5048 51.9858 1 12 82
1936051S20041 1936 8 SI MM NOT_NAMED 1936-02-24 03:00:00 TS -25.2492 53.1307 main 490 462 _____P___PP___ -1 -25.1200 53.3015 99 -25.2349 53.6200 TC 35 -25.3927 52.4706 1 12 84
1936051S20041 1936 8 SI MM NOT_NAMED 1936-02-24 06:00:00 TS -25.2000 53.8000 reunion main 462 442 _____O___OO___ -1 -25.1000 54.1000 99 9.90000 -25.2000 54.3000 TC 35 -25.3000 53.0000 2 12 87
1936051S20041 1936 8 SI MM NOT_NAMED 1936-02-24 09:00:00 TS -25.1928 54.4872 main 439 427 _____P___PP___ -1 -25.1518 54.8174 99 -25.1850 55.0075 TC 35 -25.2417 53.6368 2 12 90
1936051S20041 1936 8 SI MM NOT_NAMED 1936-02-24 12:00:00 TS -25.2103 55.1708 main 426 424 _____P___OP___ -1 -25.2253 55.4922 99 -25.2000 55.7000 TC 35 -25.2057 54.3201 2 12 93
1936051S20041 1936 8 SI MM NOT_NAMED 1936-02-24 15:00:00 TS -25.2495 55.8184 main 425 425 _____P___PP___ -1 -25.3149 56.1221 99 -25.2421 56.3149 TC 35 -25.1916 55.0183 2 11 95
1936051S20041 1936 8 SI MM NOT_NAMED 1936-02-24 18:00:00 TS -25.3053 56.3925 main 443 443 _____P___OO___ -1 -25.4147 56.7044 99 -25.3000 56.9000 TC 35 -25.2000 55.7000 2 10 97
1936051S20041 1936 8 SI MM NOT_NAMED 1936-02-24 21:00:00 TS -25.3703 56.9300 main 466 466 _____P___PP___ -1 -25.5189 57.2365 99 -25.3531 57.4950 TC 35 -25.2305 56.3411 2 10 99
1936051S20041 1936 8 SI MM NOT_NAMED 1936-02-25 00:00:00 TS -25.4652 57.4751 main 497 497 _____P___OP___ -1 -25.6217 57.7152 99 -25.4000 58.1000 TC 35 -25.2782 56.9467 2 9 104
1936051S20041 1936 8 SI MM NOT_NAMED 1936-02-25 03:00:00 NR -25.5905 57.9346 main 524 524 _____P____P___ -1 -25.7174 58.1375 99 TC -25.3369 57.5290 2 9 107
1936051S20041 1936 8 SI MM NOT_NAMED 1936-02-25 06:00:00 NR -25.7200 58.4200 reunion main 558 558 _____O____O___ -1 -25.8000 58.5000 99 9.90000 -25.4000 58.1000 2 8 109
1936051S20041 1936 8 SI MM NOT_NAMED 1936-02-25 09:00:00 NR -25.8652 58.8013 main 597 597 _____P________ -1 -25.8652 58.8013 99 2 6 109
1936051S20041 1936 8 SI MM NOT_NAMED 1936-02-25 12:00:00 NR -25.9140 59.0472 main 608 608 _____P________ -1 -25.9140 59.0472 99 2 4 102
1936051S20041 1936 8 SI MM NOT_NAMED 1936-02-25 15:00:00 NR -25.9491 59.2456 main 619 619 _____P________ -1 -25.9491 59.2456 99 2 3 100
1936051S20041 1936 8 SI MM NOT_NAMED 1936-02-25 18:00:00 NR -25.9728 59.4042 main 638 638 _____P________ -1 -25.9728 59.4042 99 3 99
1936051S20041 1936 8 SI MM NOT_NAMED 1936-02-25 21:00:00 NR -25.9874 59.5310 main 641 641 _____P________ -1 -25.9874 59.5310 99 2 96
1936051S20041 1936 8 SI MM NOT_NAMED 1936-02-26 00:00:00 NR -25.9954 59.6340 main 644 644 _____P________ -1 -25.9954 59.6340 99 2 94
1936051S20041 1936 8 SI MM NOT_NAMED 1936-02-26 03:00:00 NR -25.9988 59.7210 main 647 647 _____P________ -1 -25.9988 59.7210 99 1 92
1936051S20041 1936 8 SI MM NOT_NAMED 1936-02-26 06:00:00 NR -26.0000 59.8000 reunion main 651 _____O________ -1 -26.0000 59.8000 99 9.90000 1 91

About IBTrACS Database

This database is a web-friendly format of International Best Track Archive for Climate Stewardship (IBTrACS), a global best track data archive curated by NOAA dating back to 1842.

Updated: 2021-12-03